Terminal Aerodrome Forecast
Issued by NWS

Home | Current Version | Previous Version | Text Only | Print | Product List | Glossary On
Versions: 1 2 3 4 5 6 7 8 9 10 11 12 13 14 15 16 17 18 19 20 21 22 23 24
000
FTUS45 KBOU 160408 AAD
TAFAPA
TAF AMD
KAPA 160408Z 1604/1624 01010KT P6SM BKN090 OVC150
      TEMPO 1604/1606 -SHRA BKN070
     FM160600 04009KT P6SM VCSH SCT030 OVC050
     FM161000 06007KT P6SM OVC015
     FM161600 VRB05KT P6SM SCT015 OVC040
     FM162000 02006KT P6SM SCT050 BKN080
     FM162200 02008KT P6SM VCTS SCT050CB BKN070=

USA.gov is the U.S. government's official web portal to all federal, state and local government web resources and services.